Aérodrome :
LOGIN :

S'inscrire | Disclaimer

   EN    FR    IT 

 










Légende :    VFR   VFR Marginal   IFR   IFR Intensif   IFR Très Intensif
Visi : 
Plafond : 
>= 8 km
>= 3000ft
5 à 8 km
1000 à 3000 ft
1500m à 5 km
500 à 1000 ft
800 à 1500m
200 à 500 ft
< 800m
< 200 ft
Symboles :   Orages  Brouillard  Fortes neiges  Fortes précipitations  Vent > 20 kt
SIGMETs :   Divers  Orages  Givrage  Turbulence  Onde Orograph.  Cendres Volcan.







- Altitude de l'aérodrome : 183 ft
- Code IATA : HAJ


EDDV - Hanover/Langenhagen Int.

DERNIER METAR :
  • 210420Z 18002KT 6000 NSC 09/08 Q1021 TEMPO 2000 BCFG

METARs EXPIRÉS :
  • 210350Z 17002KT 4500 1200NW R27R/0700VP2000U R27L/P2000N BCFG BR NSC 09/08 Q1021 TEMPO 0800 FG
  • 210320Z 13002KT 5000 BR NSC 09/08 Q1021
  • 210250Z 17002KT 7000 NSC 09/08 Q1021
  • 210220Z 16003KT 7000 NSC 08/07 Q1021
  • 210150Z 16002KT 2200 BR NSC 07/06 Q1021

TAF TAF EDDV
Valide du 21 à 00h jusqu'au 22 à 00h UTC


202300Z 2100/2124 22003KT 9999 FEW040
TEMPO 2100/2107 2000 BCFG
PROB30
TEMPO 2100/2107 0500 FG
TEMPO 2107/2108 3500 BR
Pas de NOTAMs connus pour ce terrain.



MET'MAP, la Météo Aéronautique d'un coup d'oeil ! - Copyright ORBIFLY Décembre 2007 - Disclaimer

ORBIFLY MET'MAP TEAM :

Programmation & Développement : Alexandra Zaïnal
Conception & Développement : Baudouin d'Aumeries
Co-Programmation & Développement : Marc-Olivier Méhu
Soutien technique & logistique : Manuel Goepfert

Contact : metmap@orbifly.com




SOURCES & CREDITS :

   NOAA